Time;durP1;ratioP1;P1;durP2;ratioP2;P2;SDS_P1;SDS_P2;PMS_P1;PMS_P2;Temp;Humidity;BMP_temperature;BMP_pressure;BME280_temperature;BME280_humidity;BME280_pressure;Samples;Min_cycle;Max_cycle;Signal;HPM_P1;HPM_P2
2023/05/20 00:00:26;;;;;;;;;;;9.10;99.90;;;;;;5113992;27;19927;-86
2023/05/20 00:02:51;;;;;;;;;;;9.10;99.90;;;;;;5130372;27;19975;-86
2023/05/20 00:05:17;;;;;;;;;;;9.10;99.90;;;;;;5132199;27;19956;-86
2023/05/20 00:07:43;;;;;;;;;;;9.10;99.90;;;;;;5132724;27;19930;-85
2023/05/20 00:10:08;;;;;;;;;;;9.10;99.90;;;;;;5127816;27;19927;-86
2023/05/20 00:12:34;;;;;;;;;;;9.10;99.90;;;;;;5122349;27;19963;-86
2023/05/20 00:15:00;;;;;;;;;;;9.10;99.90;;;;;;5121795;27;20325;-87
2023/05/20 00:17:27;;;;;;;;;;;9.10;99.90;;;;;;5145288;27;20483;-85
2023/05/20 00:19:53;;;;;;;;;;;9.00;99.90;;;;;;5120126;27;19934;-87
2023/05/20 00:22:18;;;;;;;;;;;9.00;99.90;;;;;;5141529;27;20330;-86
2023/05/20 00:24:44;;;;;;;;;;;9.00;99.90;;;;;;5150698;27;19927;-86
2023/05/20 00:27:10;;;;;;;;;;;9.00;99.90;;;;;;5117020;27;20405;-86
2023/05/20 00:29:35;;;;;;;;;;;8.90;99.90;;;;;;5112196;27;20050;-86
2023/05/20 00:32:01;;;;;;;;;;;8.90;99.90;;;;;;5130588;27;19940;-86
2023/05/20 00:34:26;;;;;;;;;;;8.90;99.90;;;;;;5137823;27;20379;-85
2023/05/20 00:36:52;;;;;;;;;;;8.90;99.90;;;;;;5130019;27;19927;-85
2023/05/20 00:39:18;;;;;;;;;;;8.90;99.90;;;;;;5133985;27;19923;-84
2023/05/20 00:41:43;;;;;;;;;;;8.80;99.90;;;;;;5117066;27;19927;-85
2023/05/20 00:44:09;;;;;;;;;;;8.90;99.90;;;;;;5146292;27;20368;-87
2023/05/20 00:46:35;;;;;;;;;;;8.90;99.90;;;;;;5120746;27;19967;-86
2023/05/20 00:49:01;;;;;;;;;;;8.90;99.90;;;;;;5131846;27;20292;-85
2023/05/20 00:51:26;;;;;;;;;;;8.90;99.90;;;;;;5144750;27;19924;-85
2023/05/20 00:53:52;;;;;;;;;;;8.90;99.90;;;;;;5122854;27;19928;-86
2023/05/20 00:56:19;;;;;;;;;;;8.90;99.90;;;;;;5126658;27;20049;-86
2023/05/20 00:58:44;;;;;;;;;;;9.00;99.90;;;;;;5133679;27;20442;-85
2023/05/20 01:01:10;;;;;;;;;;;9.00;99.90;;;;;;5142142;27;19930;-85
2023/05/20 01:03:37;;;;;;;;;;;9.00;99.90;;;;;;5144749;27;21241;-85
2023/05/20 01:06:02;;;;;;;;;;;8.90;99.90;;;;;;5153695;27;19976;-85
2023/05/20 01:08:28;;;;;;;;;;;8.90;99.90;;;;;;5125998;27;20010;-85
2023/05/20 01:11:02;;;;;;;;;;;8.90;99.90;;;;;;5146214;27;19942;-86
2023/05/20 01:13:32;;;;;;;;;;;8.90;99.90;;;;;;5137744;27;19938;-85
2023/05/20 01:15:59;;;;;;;;;;;9.00;99.90;;;;;;5144554;27;19926;-85
2023/05/20 01:18:29;;;;;;;;;;;9.00;99.90;;;;;;5152626;27;19931;-86
2023/05/20 01:20:54;;;;;;;;;;;9.00;99.90;;;;;;5152469;27;20855;-85
2023/05/20 01:23:20;;;;;;;;;;;9.10;99.90;;;;;;5128753;27;19923;-85
2023/05/20 01:25:46;;;;;;;;;;;9.10;99.90;;;;;;5115176;27;20324;-86
2023/05/20 01:28:16;;;;;;;;;;;9.10;99.90;;;;;;5135163;27;20009;-86
2023/05/20 01:30:46;;;;;;;;;;;9.10;99.90;;;;;;5126175;27;19923;-85
2023/05/20 01:33:13;;;;;;;;;;;9.10;99.90;;;;;;5151299;27;19975;-86
2023/05/20 01:35:39;;;;;;;;;;;9.10;99.90;;;;;;5131395;27;20050;-86
2023/05/20 01:38:05;;;;;;;;;;;9.10;99.90;;;;;;5145659;27;20371;-86
2023/05/20 01:40:31;;;;;;;;;;;9.10;99.90;;;;;;5142618;27;19941;-86
2023/05/20 01:42:57;;;;;;;;;;;9.10;99.90;;;;;;5125642;27;19927;-86
2023/05/20 01:45:24;;;;;;;;;;;9.00;99.90;;;;;;5129467;27;19963;-85
2023/05/20 01:47:49;;;;;;;;;;;9.00;99.90;;;;;;5125267;27;19931;-86
2023/05/20 01:50:15;;;;;;;;;;;9.10;99.90;;;;;;5148093;27;19935;-86
2023/05/20 01:52:40;;;;;;;;;;;9.10;99.90;;;;;;5125752;27;19927;-86
2023/05/20 01:55:06;;;;;;;;;;;9.00;99.90;;;;;;5143314;27;19929;-86
2023/05/20 01:57:32;;;;;;;;;;;9.00;99.90;;;;;;5123662;27;20295;-86
2023/05/20 01:59:57;;;;;;;;;;;8.90;99.90;;;;;;5115108;27;19926;-85
2023/05/20 02:02:23;;;;;;;;;;;8.80;99.90;;;;;;5147201;27;19929;-85
2023/05/20 02:04:49;;;;;;;;;;;8.80;99.90;;;;;;5133557;27;19922;-86
2023/05/20 02:07:15;;;;;;;;;;;8.70;99.90;;;;;;5122440;27;19930;-85
2023/05/20 02:09:41;;;;;;;;;;;8.70;99.90;;;;;;5150555;27;19971;-86
2023/05/20 02:12:07;;;;;;;;;;;8.60;99.90;;;;;;5147223;27;19926;-85
2023/05/20 02:14:33;;;;;;;;;;;8.60;99.90;;;;;;5158841;27;20391;-86
2023/05/20 02:16:58;;;;;;;;;;;8.60;99.90;;;;;;5132973;27;19980;-86
2023/05/20 02:19:24;;;;;;;;;;;8.50;99.90;;;;;;5131114;27;19926;-85
2023/05/20 02:21:49;;;;;;;;;;;8.50;99.90;;;;;;5145214;27;20912;-86
2023/05/20 02:24:15;;;;;;;;;;;8.50;99.90;;;;;;5113858;27;19922;-86
2023/05/20 02:26:41;;;;;;;;;;;8.40;99.90;;;;;;5152041;27;19927;-85
2023/05/20 02:29:07;;;;;;;;;;;8.40;99.90;;;;;;5136176;27;19935;-84
2023/05/20 02:31:32;;;;;;;;;;;8.40;99.90;;;;;;5146036;27;19982;-85
2023/05/20 02:33:58;;;;;;;;;;;8.40;1.00;;;;;;5147111;27;19923;-85
2023/05/20 02:36:23;;;;;;;;;;;8.50;99.90;;;;;;5139950;27;20328;-85
2023/05/20 02:38:49;;;;;;;;;;;8.60;1.00;;;;;;5142651;27;19933;-86
2023/05/20 02:41:15;;;;;;;;;;;8.70;1.00;;;;;;5140178;27;20387;-85
2023/05/20 02:43:43;;;;;;;;;;;8.80;1.00;;;;;;5118817;27;19967;-86
2023/05/20 02:46:08;;;;;;;;;;;8.90;1.00;;;;;;5121615;27;19923;-86
2023/05/20 02:48:34;;;;;;;;;;;9.00;1.00;;;;;;5140099;27;19931;-85
2023/05/20 02:51:01;;;;;;;;;;;9.00;99.90;;;;;;5151763;27;19946;-85
2023/05/20 02:53:26;;;;;;;;;;;9.00;99.90;;;;;;5124142;27;20030;-85
2023/05/20 02:55:52;;;;;;;;;;;9.00;99.90;;;;;;5134415;27;20009;-86
2023/05/20 02:58:18;;;;;;;;;;;9.00;99.90;;;;;;5128987;27;19924;-86
2023/05/20 03:00:43;;;;;;;;;;;9.00;99.90;;;;;;5105385;28;19927;-85
2023/05/20 03:03:09;;;;;;;;;;;9.10;99.90;;;;;;5106489;27;19932;-86
2023/05/20 03:05:36;;;;;;;;;;;9.20;99.90;;;;;;5108147;27;19970;-85
2023/05/20 03:08:03;;;;;;;;;;;9.30;1.00;;;;;;5098590;27;19924;-86
2023/05/20 03:10:28;;;;;;;;;;;9.30;1.00;;;;;;5125298;27;19924;-87
2023/05/20 03:12:54;;;;;;;;;;;9.40;99.90;;;;;;5108284;28;19924;-85
2023/05/20 03:15:20;;;;;;;;;;;9.40;99.90;;;;;;5099048;28;19931;-85
2023/05/20 03:17:45;;;;;;;;;;;9.40;99.90;;;;;;5109233;27;19927;-85
2023/05/20 03:20:12;;;;;;;;;;;9.30;99.90;;;;;;5098840;27;19934;-84
2023/05/20 03:22:37;;;;;;;;;;;9.30;99.90;;;;;;5096961;27;20380;-86
2023/05/20 03:25:04;;;;;;;;;;;9.20;99.90;;;;;;5092951;27;19927;-84
2023/05/20 03:27:29;;;;;;;;;;;9.10;99.90;;;;;;5106404;27;19923;-85
2023/05/20 03:29:55;;;;;;;;;;;9.10;99.90;;;;;;5104881;27;20020;-85
2023/05/20 03:32:21;;;;;;;;;;;9.10;99.90;;;;;;5086002;27;20010;-85
2023/05/20 03:34:46;;;;;;;;;;;9.00;99.90;;;;;;5096520;27;19980;-85
2023/05/20 03:37:12;;;;;;;;;;;9.00;99.90;;;;;;5122681;27;19973;-85
2023/05/20 03:39:37;;;;;;;;;;;9.10;99.90;;;;;;5125671;27;20010;-85
2023/05/20 03:42:04;;;;;;;;;;;9.10;99.90;;;;;;5116025;27;19989;-85
2023/05/20 03:44:30;;;;;;;;;;;9.20;99.90;;;;;;5125139;27;19949;-85
2023/05/20 03:46:55;;;;;;;;;;;9.20;99.90;;;;;;5088465;27;19924;-85
2023/05/20 03:49:21;;;;;;;;;;;9.30;99.90;;;;;;5131834;27;20440;-85
2023/05/20 03:51:46;;;;;;;;;;;9.30;99.90;;;;;;5100895;27;19923;-86
2023/05/20 03:54:12;;;;;;;;;;;9.20;99.90;;;;;;5102610;27;19933;-85
2023/05/20 03:56:37;;;;;;;;;;;9.30;99.90;;;;;;5131059;27;20007;-86
2023/05/20 03:59:03;;;;;;;;;;;9.30;99.90;;;;;;5131642;27;19933;-85
2023/05/20 04:01:28;;;;;;;;;;;9.30;99.90;;;;;;5153852;27;20346;-85
2023/05/20 04:03:54;;;;;;;;;;;9.40;99.90;;;;;;5138412;27;19931;-85
2023/05/20 04:06:21;;;;;;;;;;;9.40;99.90;;;;;;5139039;27;19937;-85
2023/05/20 04:08:47;;;;;;;;;;;9.40;99.90;;;;;;5138142;27;19927;-85
2023/05/20 04:11:12;;;;;;;;;;;9.40;99.90;;;;;;5130280;27;20303;-86
2023/05/20 04:13:38;;;;;;;;;;;9.40;99.90;;;;;;5129355;27;19923;-86
2023/05/20 04:16:04;;;;;;;;;;;9.40;99.90;;;;;;5138335;27;19982;-86
2023/05/20 04:18:30;;;;;;;;;;;9.40;99.90;;;;;;5139021;27;19947;-85
2023/05/20 04:20:56;;;;;;;;;;;9.50;99.90;;;;;;5155783;27;20379;-85
2023/05/20 04:23:22;;;;;;;;;;;9.60;99.90;;;;;;5156712;27;19966;-85
2023/05/20 04:25:48;;;;;;;;;;;9.70;99.90;;;;;;5154590;27;20013;-86
2023/05/20 04:28:15;;;;;;;;;;;9.80;99.90;;;;;;5134357;27;19927;-84
2023/05/20 04:30:41;;;;;;;;;;;9.90;99.90;;;;;;5133605;27;19938;-86
2023/05/20 04:33:06;;;;;;;;;;;10.00;99.90;;;;;;5145588;27;19927;-85
2023/05/20 04:35:33;;;;;;;;;;;10.10;99.90;;;;;;5131893;27;19934;-85
2023/05/20 04:37:59;;;;;;;;;;;10.20;99.90;;;;;;5128045;27;19923;-84
2023/05/20 04:40:26;;;;;;;;;;;10.40;99.90;;;;;;5152082;27;19922;-84
2023/05/20 04:42:51;;;;;;;;;;;10.50;99.90;;;;;;5114593;27;19926;-85
2023/05/20 04:45:17;;;;;;;;;;;10.60;99.90;;;;;;5133804;27;19935;-85
2023/05/20 04:47:44;;;;;;;;;;;10.70;99.90;;;;;;5132146;27;19929;-86
2023/05/20 04:50:10;;;;;;;;;;;10.80;99.90;;;;;;5140474;27;19972;-85
2023/05/20 04:52:40;;;;;;;;;;;11.00;99.90;;;;;;5130013;27;19962;-85
2023/05/20 04:55:09;;;;;;;;;;;11.10;99.90;;;;;;5132553;27;19927;-85
2023/05/20 04:57:35;;;;;;;;;;;11.10;99.90;;;;;;5129732;27;19962;-85
2023/05/20 05:00:01;;;;;;;;;;;11.10;99.90;;;;;;5136858;27;19929;-84
2023/05/20 05:02:26;;;;;;;;;;;11.10;99.90;;;;;;5150845;27;20037;-85
2023/05/20 05:04:52;;;;;;;;;;;11.00;99.90;;;;;;5131529;27;19927;-85
2023/05/20 05:07:17;;;;;;;;;;;10.90;99.90;;;;;;5133039;27;19930;-85
2023/05/20 05:09:43;;;;;;;;;;;10.80;99.90;;;;;;5114200;27;19923;-84
2023/05/20 05:12:08;;;;;;;;;;;10.70;99.90;;;;;;5153102;27;19974;-85
2023/05/20 05:14:34;;;;;;;;;;;10.70;99.90;;;;;;5153642;27;19926;-85
2023/05/20 05:16:59;;;;;;;;;;;10.60;99.90;;;;;;5147846;27;19923;-85
2023/05/20 05:19:25;;;;;;;;;;;10.60;99.90;;;;;;5110186;27;19973;-85
2023/05/20 05:21:50;;;;;;;;;;;10.50;99.90;;;;;;5144741;27;19927;-85
2023/05/20 05:24:16;;;;;;;;;;;10.50;99.90;;;;;;5150890;27;20361;-85
2023/05/20 05:26:42;;;;;;;;;;;10.50;99.90;;;;;;5126868;27;19972;-85
2023/05/20 05:29:07;;;;;;;;;;;10.60;99.90;;;;;;5145969;27;20710;-84
2023/05/20 05:31:33;;;;;;;;;;;10.70;99.90;;;;;;5136594;27;19961;-84
2023/05/20 05:33:58;;;;;;;;;;;10.80;99.90;;;;;;5145541;27;19923;-86
2023/05/20 05:36:27;;;;;;;;;;;10.80;99.90;;;;;;5150096;27;19923;-85
2023/05/20 05:38:52;;;;;;;;;;;10.90;99.90;;;;;;5132636;27;19927;-85
2023/05/20 05:41:18;;;;;;;;;;;11.00;99.90;;;;;;5146931;27;19929;-85
2023/05/20 05:43:43;;;;;;;;;;;11.10;99.90;;;;;;5131605;27;19933;-84
2023/05/20 05:46:09;;;;;;;;;;;11.20;99.90;;;;;;5111280;27;19923;-85
2023/05/20 05:48:35;;;;;;;;;;;11.20;99.90;;;;;;5116327;27;19923;-86
2023/05/20 05:51:00;;;;;;;;;;;11.30;99.80;;;;;;5124597;27;19923;-85
2023/05/20 05:53:26;;;;;;;;;;;11.40;85.70;;;;;;5144683;27;19927;-86
2023/05/20 05:55:52;;;;;;;;;;;11.50;88.60;;;;;;5131303;27;19933;-85
2023/05/20 05:58:17;;;;;;;;;;;11.50;58.50;;;;;;5118125;27;19927;-84
2023/05/20 06:00:43;;;;;;;;;;;11.60;51.70;;;;;;5132285;27;19923;-84
2023/05/20 06:03:09;;;;;;;;;;;11.70;44.50;;;;;;5140185;27;19924;-85
2023/05/20 06:05:35;;;;;;;;;;;11.80;41.80;;;;;;5137053;27;19923;-84
2023/05/20 06:08:00;;;;;;;;;;;11.80;15.40;;;;;;5126889;27;19927;-84
2023/05/20 06:10:26;;;;;;;;;;;12.00;28.80;;;;;;5130884;27;19926;-84
2023/05/20 06:12:51;;;;;;;;;;;12.20;19.70;;;;;;5151025;27;20025;-84
2023/05/20 06:15:17;;;;;;;;;;;12.40;1.00;;;;;;5145269;27;19975;-84
2023/05/20 06:17:43;;;;;;;;;;;12.50;1.00;;;;;;5127122;27;19934;-85
2023/05/20 06:20:08;;;;;;;;;;;12.80;1.00;;;;;;5141933;27;19930;-84
2023/05/20 06:22:34;;;;;;;;;;;12.90;1.00;;;;;;5149799;27;19967;-84
2023/05/20 06:25:01;;;;;;;;;;;13.10;1.00;;;;;;5148712;27;19944;-84
2023/05/20 06:27:27;;;;;;;;;;;13.30;1.00;;;;;;5150038;27;19943;-85
2023/05/20 06:29:52;;;;;;;;;;;13.50;1.00;;;;;;5141956;27;19926;-85
2023/05/20 06:32:18;;;;;;;;;;;13.70;1.00;;;;;;5124244;27;19933;-84
2023/05/20 06:34:44;;;;;;;;;;;13.90;1.00;;;;;;5123697;27;19981;-85
2023/05/20 06:37:10;;;;;;;;;;;14.10;1.00;;;;;;5148671;27;19965;-84
2023/05/20 06:39:35;;;;;;;;;;;14.20;1.00;;;;;;5154426;27;19923;-84
2023/05/20 06:42:01;;;;;;;;;;;14.40;1.00;;;;;;5119053;27;19933;-87
2023/05/20 06:44:27;;;;;;;;;;;14.50;1.00;;;;;;5150477;27;20398;-84
2023/05/20 06:46:52;;;;;;;;;;;14.60;1.00;;;;;;5149644;27;19934;-84
2023/05/20 06:49:18;;;;;;;;;;;14.80;1.00;;;;;;5133286;27;20010;-87
2023/05/20 06:51:43;;;;;;;;;;;14.90;1.00;;;;;;5146721;27;19931;-88
2023/05/20 06:54:09;;;;;;;;;;;15.10;1.00;;;;;;5135206;27;19927;-88
2023/05/20 06:56:35;;;;;;;;;;;15.20;1.00;;;;;;5134981;27;19922;-88
2023/05/20 06:59:00;;;;;;;;;;;15.30;1.00;;;;;;5154463;27;19970;-88
2023/05/20 07:01:26;;;;;;;;;;;15.40;1.00;;;;;;5153437;27;20391;-88
2023/05/20 07:03:52;;;;;;;;;;;15.50;1.00;;;;;;5154240;27;19981;-88
2023/05/20 07:06:17;;;;;;;;;;;15.60;1.00;;;;;;5128932;27;20320;-88
2023/05/20 07:08:43;;;;;;;;;;;15.80;1.00;;;;;;5149229;27;19923;-86
2023/05/20 07:11:08;;;;;;;;;;;15.90;1.00;;;;;;5125781;27;19979;-87
2023/05/20 07:13:34;;;;;;;;;;;16.00;1.00;;;;;;5117662;27;19927;-87
2023/05/20 07:16:00;;;;;;;;;;;16.20;1.00;;;;;;5132114;27;19924;-86
2023/05/20 07:18:25;;;;;;;;;;;16.40;1.00;;;;;;5115476;27;19927;-87
2023/05/20 07:20:51;;;;;;;;;;;16.60;1.00;;;;;;5136597;27;19927;-87
2023/05/20 07:23:17;;;;;;;;;;;16.80;1.00;;;;;;5134361;27;19927;-89
2023/05/20 07:25:42;;;;;;;;;;;17.00;1.00;;;;;;5140985;27;19926;-88
2023/05/20 07:28:08;;;;;;;;;;;17.10;1.00;;;;;;5139546;27;19923;-87
2023/05/20 07:30:33;;;;;;;;;;;17.20;1.00;;;;;;5120033;27;19970;-88
2023/05/20 07:32:59;;;;;;;;;;;17.40;1.00;;;;;;5155882;27;19923;-88
2023/05/20 07:35:25;;;;;;;;;;;17.50;1.00;;;;;;5138510;27;19923;-87
2023/05/20 07:37:51;;;;;;;;;;;17.70;1.00;;;;;;5137785;27;19927;-87
2023/05/20 07:40:16;;;;;;;;;;;17.80;1.00;;;;;;5152519;27;19935;-86
2023/05/20 07:42:42;;;;;;;;;;;17.90;1.00;;;;;;5150560;27;19927;-87
2023/05/20 07:45:08;;;;;;;;;;;18.00;1.00;;;;;;5138347;27;19927;-86
2023/05/20 07:47:33;;;;;;;;;;;18.20;1.00;;;;;;5145193;27;19922;-86
2023/05/20 07:49:59;;;;;;;;;;;18.30;1.00;;;;;;5154952;27;19922;-84
2023/05/20 07:52:25;;;;;;;;;;;18.40;1.00;;;;;;5154854;27;19981;-86
2023/05/20 07:54:50;;;;;;;;;;;18.50;1.00;;;;;;5129852;27;20640;-85
2023/05/20 07:57:16;;;;;;;;;;;18.70;1.00;;;;;;5116870;27;19927;-85
2023/05/20 07:59:41;;;;;;;;;;;18.90;1.00;;;;;;5128635;27;19958;-85
2023/05/20 08:02:07;;;;;;;;;;;19.20;1.00;;;;;;5115077;27;20009;-83
2023/05/20 08:04:33;;;;;;;;;;;19.40;1.00;;;;;;5145154;27;20366;-83
2023/05/20 08:06:59;;;;;;;;;;;19.60;1.00;;;;;;5144105;27;19973;-81
2023/05/20 08:09:25;;;;;;;;;;;19.80;1.00;;;;;;5131978;27;19974;-78
2023/05/20 08:11:50;;;;;;;;;;;19.90;1.00;;;;;;5158721;27;19974;-78
2023/05/20 08:14:16;;;;;;;;;;;19.50;1.00;;;;;;5152783;27;19927;-84
2023/05/20 08:16:42;;;;;;;;;;;18.90;1.00;;;;;;5127700;27;19931;-85
2023/05/20 08:19:07;;;;;;;;;;;18.60;1.00;;;;;;5104832;27;20015;-82
2023/05/20 08:21:34;;;;;;;;;;;19.10;1.00;;;;;;5126470;27;20535;-86
2023/05/20 08:24:00;;;;;;;;;;;19.70;1.00;;;;;;5150223;27;19931;-78
2023/05/20 08:26:25;;;;;;;;;;;20.00;1.00;;;;;;5141807;27;20438;-78
2023/05/20 08:28:51;;;;;;;;;;;20.30;1.00;;;;;;5165684;27;20014;-82
2023/05/20 08:31:17;;;;;;;;;;;20.50;1.00;;;;;;5148737;27;19931;-84
2023/05/20 08:33:42;;;;;;;;;;;20.70;1.00;;;;;;5152133;27;19939;-83
2023/05/20 08:36:08;;;;;;;;;;;21.10;1.00;;;;;;5133095;27;20089;-82
2023/05/20 08:38:33;;;;;;;;;;;21.30;1.00;;;;;;5162639;27;20282;-82
2023/05/20 08:40:59;;;;;;;;;;;21.70;1.00;;;;;;5150479;27;19927;-82
2023/05/20 08:43:25;;;;;;;;;;;21.90;1.00;;;;;;5142594;27;19940;-82
2023/05/20 08:45:51;;;;;;;;;;;22.10;1.00;;;;;;5151483;27;20017;-82
2023/05/20 08:48:17;;;;;;;;;;;22.50;1.00;;;;;;5145159;27;20037;-86
2023/05/20 08:50:46;;;;;;;;;;;22.70;1.00;;;;;;5150010;27;19927;-82
2023/05/20 08:53:14;;;;;;;;;;;23.00;1.00;;;;;;5147733;27;20315;-84
2023/05/20 08:55:45;;;;;;;;;;;23.30;1.00;;;;;;5143621;27;19960;-82
2023/05/20 08:58:11;;;;;;;;;;;23.60;1.00;;;;;;5145018;27;19923;-83
2023/05/20 09:00:37;;;;;;;;;;;24.00;1.00;;;;;;5144882;27;19927;-85
2023/05/20 09:03:03;;;;;;;;;;;24.30;1.00;;;;;;5133762;27;20004;-83
2023/05/20 09:05:28;;;;;;;;;;;24.40;1.00;;;;;;5133372;27;19923;-84
2023/05/20 09:08:05;;;;;;;;;;;24.70;1.00;;;;;;5155556;27;19930;-82
2023/05/20 09:10:30;;;;;;;;;;;25.10;1.00;;;;;;5152395;27;19975;-82
2023/05/20 09:12:56;;;;;;;;;;;25.10;1.00;;;;;;5153575;27;19934;-83
2023/05/20 09:15:21;;;;;;;;;;;25.30;1.00;;;;;;5154806;27;19981;-87
2023/05/20 09:17:48;;;;;;;;;;;25.60;1.00;;;;;;5165107;27;20352;-82
2023/05/20 09:20:14;;;;;;;;;;;25.90;1.00;;;;;;5150725;27;19977;-83
2023/05/20 09:22:40;;;;;;;;;;;26.00;1.00;;;;;;5130434;27;19987;-83
2023/05/20 09:25:06;;;;;;;;;;;26.40;1.00;;;;;;5144481;27;19923;-83
2023/05/20 09:27:32;;;;;;;;;;;26.50;1.00;;;;;;5158498;27;19923;-82
2023/05/20 09:29:58;;;;;;;;;;;26.40;1.00;;;;;;5151293;27;19923;-84
2023/05/20 09:32:26;;;;;;;;;;;26.60;1.00;;;;;;5151028;27;19935;-86
2023/05/20 09:34:52;;;;;;;;;;;27.00;1.00;;;;;;5132866;27;19944;-82
2023/05/20 09:37:20;;;;;;;;;;;27.10;1.00;;;;;;5148148;27;19927;-83
2023/05/20 09:39:56;;;;;;;;;;;27.60;1.00;;;;;;5147758;27;19962;-81
2023/05/20 09:42:27;;;;;;;;;;;27.90;1.00;;;;;;5135542;27;19973;-79
2023/05/20 09:44:53;;;;;;;;;;;27.80;1.00;;;;;;5148918;27;19933;-82
2023/05/20 09:47:19;;;;;;;;;;;27.80;1.00;;;;;;5151113;27;19923;-82
2023/05/20 09:49:46;;;;;;;;;;;27.90;1.00;;;;;;5154447;27;20080;-87
2023/05/20 09:52:14;;;;;;;;;;;27.80;1.00;;;;;;5124535;27;20379;-82
2023/05/20 09:54:40;;;;;;;;;;;27.80;1.00;;;;;;5136587;27;19930;-82
2023/05/20 09:57:06;;;;;;;;;;;27.60;1.00;;;;;;5154669;27;19969;-83
2023/05/20 09:59:34;;;;;;;;;;;27.70;1.00;;;;;;5154335;27;20485;-82
2023/05/20 10:01:59;;;;;;;;;;;27.70;1.00;;;;;;5155813;27;19922;-81
2023/05/20 10:04:26;;;;;;;;;;;26.40;1.00;;;;;;5154593;27;20485;-81
2023/05/20 10:07:00;;;;;;;;;;;25.00;1.00;;;;;;5146118;27;20376;-81
2023/05/20 10:09:30;;;;;;;;;;;24.10;1.00;;;;;;5150661;27;19981;-88
2023/05/20 10:12:21;;;;;;;;;;;24.50;1.00;;;;;;5127348;27;19923;-81
2023/05/20 10:15:02;;;;;;;;;;;25.40;1.00;;;;;;5136286;27;20293;-82
2023/05/20 10:17:38;;;;;;;;;;;26.90;1.00;;;;;;5123908;27;20302;-87
2023/05/20 10:20:07;;;;;;;;;;;27.70;1.00;;;;;;5138327;27;19927;-81
2023/05/20 10:22:33;;;;;;;;;;;27.30;1.00;;;;;;5137661;27;19930;-82
2023/05/20 10:25:00;;;;;;;;;;;26.70;1.00;;;;;;5146488;27;19922;-81
2023/05/20 10:27:25;;;;;;;;;;;26.50;1.00;;;;;;5135522;27;20054;-81
2023/05/20 10:29:51;;;;;;;;;;;25.60;1.00;;;;;;5124584;27;20017;-84
2023/05/20 10:32:26;;;;;;;;;;;25.70;1.00;;;;;;5140361;27;20414;-82
2023/05/20 10:34:52;;;;;;;;;;;26.60;1.00;;;;;;5153354;27;19922;-81
2023/05/20 10:37:27;;;;;;;;;;;27.70;1.00;;;;;;5113839;27;20276;-83
2023/05/20 10:40:02;;;;;;;;;;;28.20;1.00;;;;;;5169123;27;19927;-79
2023/05/20 10:42:29;;;;;;;;;;;27.70;1.00;;;;;;5139815;27;19927;-82
2023/05/20 10:44:54;;;;;;;;;;;27.40;1.00;;;;;;5145086;27;19942;-84
2023/05/20 10:47:20;;;;;;;;;;;26.70;1.00;;;;;;5144174;27;19923;-81
2023/05/20 10:49:46;;;;;;;;;;;25.80;1.00;;;;;;5171577;27;19923;-82
2023/05/20 10:52:12;;;;;;;;;;;25.00;1.00;;;;;;5151625;27;19927;-81
2023/05/20 10:54:54;;;;;;;;;;;24.60;1.00;;;;;;5151276;27;20074;-82
2023/05/20 10:57:20;;;;;;;;;;;24.30;1.00;;;;;;5157815;27;19922;-81
2023/05/20 10:59:46;;;;;;;;;;;24.50;1.00;;;;;;5161752;27;20072;-82
2023/05/20 11:02:14;;;;;;;;;;;24.50;1.00;;;;;;5158399;27;20017;-81
2023/05/20 11:04:41;;;;;;;;;;;24.40;1.00;;;;;;5157177;27;19968;-81
2023/05/20 11:07:07;;;;;;;;;;;24.70;1.00;;;;;;5157667;27;19949;-81
2023/05/20 11:09:33;;;;;;;;;;;26.00;1.00;;;;;;5174113;27;20383;-81
2023/05/20 11:11:59;;;;;;;;;;;26.60;1.00;;;;;;5156874;27;19922;-81
2023/05/20 11:14:26;;;;;;;;;;;26.70;1.00;;;;;;5156866;27;19923;-80
2023/05/20 11:16:53;;;;;;;;;;;26.60;1.00;;;;;;5157842;27;20287;-81
2023/05/20 11:19:18;;;;;;;;;;;27.10;1.00;;;;;;5175913;27;20398;-80
2023/05/20 11:21:44;;;;;;;;;;;26.80;1.00;;;;;;5157291;27;19926;-80
2023/05/20 11:24:13;;;;;;;;;;;25.80;1.00;;;;;;5155800;27;19933;-80
2023/05/20 11:26:39;;;;;;;;;;;24.80;1.00;;;;;;5157802;27;19930;-86
2023/05/20 11:29:05;;;;;;;;;;;23.90;1.00;;;;;;5155008;27;19923;-81
2023/05/20 11:31:31;;;;;;;;;;;23.50;1.00;;;;;;5134662;27;19926;-81
2023/05/20 11:34:03;;;;;;;;;;;23.30;1.00;;;;;;5122486;27;19937;-81
2023/05/20 11:36:29;;;;;;;;;;;24.00;1.00;;;;;;5149353;27;20279;-81
2023/05/20 11:38:58;;;;;;;;;;;24.20;1.00;;;;;;5152150;27;19923;-82
2023/05/20 11:41:27;;;;;;;;;;;23.60;1.00;;;;;;5166227;27;19927;-80
2023/05/20 11:43:59;;;;;;;;;;;24.00;1.00;;;;;;5150596;27;19927;-81
2023/05/20 11:46:25;;;;;;;;;;;25.50;1.00;;;;;;5152134;27;19923;-81
2023/05/20 11:48:54;;;;;;;;;;;27.20;1.00;;;;;;5153100;27;19970;-83
2023/05/20 11:51:25;;;;;;;;;;;28.70;1.00;;;;;;5154374;27;20275;-86
2023/05/20 11:53:51;;;;;;;;;;;30.40;1.00;;;;;;5147494;27;19958;-82
2023/05/20 11:56:17;;;;;;;;;;;31.60;1.00;;;;;;5155847;27;19977;-82
2023/05/20 11:58:42;;;;;;;;;;;32.10;1.00;;;;;;5154128;27;19937;-87
2023/05/20 12:01:08;;;;;;;;;;;32.60;1.00;;;;;;5156022;27;19975;-83
2023/05/20 12:03:34;;;;;;;;;;;32.30;1.00;;;;;;5111434;27;19980;-87
2023/05/20 12:06:01;;;;;;;;;;;31.90;1.00;;;;;;5127880;27;19980;-82
2023/05/20 12:08:26;;;;;;;;;;;30.80;1.00;;;;;;5146422;27;19931;-82
2023/05/20 12:10:52;;;;;;;;;;;29.40;1.00;;;;;;5149225;27;19931;-83
2023/05/20 12:13:18;;;;;;;;;;;28.40;1.00;;;;;;5154978;27;19927;-81
2023/05/20 12:15:43;;;;;;;;;;;27.70;1.00;;;;;;5156149;27;20022;-84
2023/05/20 12:18:09;;;;;;;;;;;27.10;1.00;;;;;;5167718;27;19933;-80
2023/05/20 12:20:36;;;;;;;;;;;26.60;1.00;;;;;;5153414;27;19990;-80
2023/05/20 12:23:01;;;;;;;;;;;25.80;1.00;;;;;;5172594;27;20473;-83
2023/05/20 12:25:27;;;;;;;;;;;25.30;1.00;;;;;;5171207;27;19999;-80
2023/05/20 12:27:53;;;;;;;;;;;25.20;1.00;;;;;;5141146;27;19927;-80
2023/05/20 12:30:20;;;;;;;;;;;24.70;1.00;;;;;;5161233;27;19923;-80
2023/05/20 12:32:46;;;;;;;;;;;24.20;1.00;;;;;;5151396;27;19931;-86
2023/05/20 12:35:12;;;;;;;;;;;24.20;1.00;;;;;;5150474;27;19927;-82
2023/05/20 12:37:38;;;;;;;;;;;24.50;1.00;;;;;;5151082;27;19927;-84
2023/05/20 12:40:07;;;;;;;;;;;24.30;1.00;;;;;;5123366;27;19927;-81
2023/05/20 12:42:34;;;;;;;;;;;24.10;1.00;;;;;;5148440;27;19930;-81
2023/05/20 12:45:00;;;;;;;;;;;23.80;1.00;;;;;;5145754;27;20291;-80
2023/05/20 12:47:25;;;;;;;;;;;24.50;1.00;;;;;;5156256;27;19930;-81
2023/05/20 12:49:51;;;;;;;;;;;25.40;1.00;;;;;;5155956;27;19923;-82
2023/05/20 12:52:16;;;;;;;;;;;26.00;1.00;;;;;;5154361;27;19927;-82
2023/05/20 12:54:42;;;;;;;;;;;26.60;1.00;;;;;;5126261;27;19923;-86
2023/05/20 12:57:07;;;;;;;;;;;26.60;1.00;;;;;;5165040;27;19927;-84
2023/05/20 12:59:33;;;;;;;;;;;26.10;1.00;;;;;;5154967;27;19923;-82
2023/05/20 13:01:59;;;;;;;;;;;25.40;1.00;;;;;;5137780;27;19922;-82
2023/05/20 13:04:24;;;;;;;;;;;24.90;1.00;;;;;;5153609;27;19926;-81
2023/05/20 13:06:50;;;;;;;;;;;24.70;1.00;;;;;;5136899;27;19927;-82
2023/05/20 13:09:16;;;;;;;;;;;24.80;1.00;;;;;;5130066;27;19973;-79
2023/05/20 13:11:41;;;;;;;;;;;25.40;1.00;;;;;;5147456;27;19933;-89
2023/05/20 13:14:07;;;;;;;;;;;26.00;1.00;;;;;;5122503;27;19975;-81
2023/05/20 13:16:32;;;;;;;;;;;26.10;1.00;;;;;;5130343;27;20359;-84
2023/05/20 13:18:58;;;;;;;;;;;25.70;1.00;;;;;;5151553;27;20019;-82
2023/05/20 13:21:23;;;;;;;;;;;25.10;1.00;;;;;;5152152;27;19977;-81
2023/05/20 13:23:49;;;;;;;;;;;24.50;1.00;;;;;;5146802;27;20307;-85
2023/05/20 13:26:14;;;;;;;;;;;24.10;1.00;;;;;;5151565;27;20037;-81
2023/05/20 13:28:40;;;;;;;;;;;25.20;1.00;;;;;;5152118;27;19931;-81
2023/05/20 13:31:06;;;;;;;;;;;25.70;1.00;;;;;;5150168;27;19934;-81
2023/05/20 13:33:31;;;;;;;;;;;25.90;1.00;;;;;;5148686;27;21048;-82
2023/05/20 13:35:57;;;;;;;;;;;25.60;1.00;;;;;;5148526;27;19975;-83
2023/05/20 13:38:23;;;;;;;;;;;25.20;1.00;;;;;;5128505;27;19926;-82
2023/05/20 13:40:48;;;;;;;;;;;24.80;1.00;;;;;;5124692;27;19923;-81
2023/05/20 13:43:14;;;;;;;;;;;24.40;1.00;;;;;;5150699;27;20476;-81
2023/05/20 13:45:40;;;;;;;;;;;24.00;1.00;;;;;;5157686;27;19930;-80
2023/05/20 13:48:06;;;;;;;;;;;23.60;1.00;;;;;;5150352;27;19929;-80
2023/05/20 13:50:31;;;;;;;;;;;23.10;1.00;;;;;;5158939;27;19927;-81
2023/05/20 13:52:59;;;;;;;;;;;22.70;1.00;;;;;;5165010;27;19927;-86
2023/05/20 13:55:25;;;;;;;;;;;23.10;1.00;;;;;;5147244;27;20013;-81
2023/05/20 13:57:53;;;;;;;;;;;24.60;1.00;;;;;;5147148;27;20009;-81
2023/05/20 14:00:18;;;;;;;;;;;25.30;1.00;;;;;;5142343;27;19923;-81
2023/05/20 14:02:44;;;;;;;;;;;25.30;1.00;;;;;;5148217;27;20306;-81
2023/05/20 14:05:10;;;;;;;;;;;24.90;1.00;;;;;;5146247;27;19926;-80
2023/05/20 14:07:36;;;;;;;;;;;24.60;1.00;;;;;;5147807;27;19923;-83
2023/05/20 14:10:02;;;;;;;;;;;24.30;1.00;;;;;;5139899;27;19990;-85
2023/05/20 14:12:27;;;;;;;;;;;23.70;1.00;;;;;;5128067;27;19927;-82
2023/05/20 14:14:53;;;;;;;;;;;23.00;1.00;;;;;;5153420;27;20290;-80
2023/05/20 14:17:19;;;;;;;;;;;22.50;1.00;;;;;;5140178;27;19931;-85
2023/05/20 14:19:44;;;;;;;;;;;22.20;1.00;;;;;;5126221;27;19975;-81
2023/05/20 14:22:13;;;;;;;;;;;22.10;1.00;;;;;;5149688;27;19931;-82